Terminal Aerodrome Forecast
Issued by NWS

Home | Current Version | Previous Version | Text Only | Print | Product List | Glossary On
Versions: 1 2 3 4 5 6 7 8 9 10 11 12 13
000
FTUS45 KFGZ 221801 AAA
TAFPRC
TAF AMD
KPRC 221801Z 2218/2318 28005G15KT P6SM FEW150
     FM221900 28015G25KT P6SM FEW150
     FM230200 21005KT P6SM FEW150=

USA.gov is the U.S. government's official web portal to all federal, state and local government web resources and services.